sensor_id;sensor_type;location;lat;lon;timestamp;pressure;altitude;pressure_sealevel;temperature;humidity
9738;BME280;4908;47.446;13.900;2023-09-07T00:01:32;93464.53;;;12.34;100.00
9738;BME280;4908;47.446;13.900;2023-09-07T00:04:00;93468.72;;;12.28;100.00
9738;BME280;4908;47.446;13.900;2023-09-07T00:06:28;93461.78;;;12.23;100.00
9738;BME280;4908;47.446;13.900;2023-09-07T00:08:56;93460.44;;;11.96;100.00
9738;BME280;4908;47.446;13.900;2023-09-07T00:11:23;93458.56;;;12.00;100.00
9738;BME280;4908;47.446;13.900;2023-09-07T00:13:50;93449.03;;;12.10;100.00
9738;BME280;4908;47.446;13.900;2023-09-07T00:16:18;93449.63;;;11.86;100.00
9738;BME280;4908;47.446;13.900;2023-09-07T00:18:46;93449.41;;;12.08;100.00
9738;BME280;4908;47.446;13.900;2023-09-07T00:21:14;93447.84;;;12.04;100.00
9738;BME280;4908;47.446;13.900;2023-09-07T00:23:42;93445.91;;;12.01;100.00
9738;BME280;4908;47.446;13.900;2023-09-07T00:26:09;93447.81;;;12.00;100.00
9738;BME280;4908;47.446;13.900;2023-09-07T00:28:38;93443.38;;;12.22;100.00
9738;BME280;4908;47.446;13.900;2023-09-07T00:31:05;93446.38;;;12.17;100.00
9738;BME280;4908;47.446;13.900;2023-09-07T00:33:32;93447.44;;;12.02;100.00
9738;BME280;4908;47.446;13.900;2023-09-07T00:36:03;93445.16;;;12.04;100.00
9738;BME280;4908;47.446;13.900;2023-09-07T00:38:30;93443.16;;;11.94;100.00
9738;BME280;4908;47.446;13.900;2023-09-07T00:40:57;93445.50;;;11.99;100.00
9738;BME280;4908;47.446;13.900;2023-09-07T00:43:24;93440.06;;;11.92;100.00
9738;BME280;4908;47.446;13.900;2023-09-07T00:45:52;93439.00;;;12.03;100.00
9738;BME280;4908;47.446;13.900;2023-09-07T00:48:19;93439.25;;;11.81;100.00
9738;BME280;4908;47.446;13.900;2023-09-07T00:50:47;93436.28;;;11.93;100.00
9738;BME280;4908;47.446;13.900;2023-09-07T00:53:16;93440.28;;;11.65;100.00
9738;BME280;4908;47.446;13.900;2023-09-07T00:55:45;93446.69;;;11.57;100.00
9738;BME280;4908;47.446;13.900;2023-09-07T00:58:11;93442.09;;;11.58;100.00
9738;BME280;4908;47.446;13.900;2023-09-07T01:00:39;93433.69;;;11.59;100.00
9738;BME280;4908;47.446;13.900;2023-09-07T01:03:07;93448.72;;;11.67;100.00
9738;BME280;4908;47.446;13.900;2023-09-07T01:06:00;93451.69;;;11.62;100.00
9738;BME280;4908;47.446;13.900;2023-09-07T01:08:36;93443.53;;;11.48;100.00
9738;BME280;4908;47.446;13.900;2023-09-07T01:11:13;93450.50;;;11.56;100.00
9738;BME280;4908;47.446;13.900;2023-09-07T01:13:40;93443.97;;;11.54;100.00
9738;BME280;4908;47.446;13.900;2023-09-07T01:16:08;93439.28;;;11.44;100.00
9738;BME280;4908;47.446;13.900;2023-09-07T01:18:37;93451.13;;;11.43;100.00
9738;BME280;4908;47.446;13.900;2023-09-07T01:21:05;93442.00;;;11.47;100.00
9738;BME280;4908;47.446;13.900;2023-09-07T01:23:36;93438.13;;;11.45;100.00
9738;BME280;4908;47.446;13.900;2023-09-07T01:26:06;93449.63;;;11.45;100.00
9738;BME280;4908;47.446;13.900;2023-09-07T01:28:34;93439.28;;;11.44;100.00
9738;BME280;4908;47.446;13.900;2023-09-07T01:31:02;93440.38;;;11.39;100.00
9738;BME280;4908;47.446;13.900;2023-09-07T01:33:29;93440.75;;;11.38;100.00
9738;BME280;4908;47.446;13.900;2023-09-07T01:35:57;93437.72;;;11.43;100.00
9738;BME280;4908;47.446;13.900;2023-09-07T01:38:24;93441.78;;;11.26;100.00
9738;BME280;4908;47.446;13.900;2023-09-07T01:40:53;93452.13;;;11.24;100.00
9738;BME280;4908;47.446;13.900;2023-09-07T01:43:20;93438.34;;;11.26;100.00
9738;BME280;4908;47.446;13.900;2023-09-07T01:45:47;93442.50;;;11.23;100.00
9738;BME280;4908;47.446;13.900;2023-09-07T01:48:14;93442.47;;;11.20;100.00
9738;BME280;4908;47.446;13.900;2023-09-07T01:50:42;93437.50;;;11.18;100.00
9738;BME280;4908;47.446;13.900;2023-09-07T01:53:09;93428.66;;;11.14;100.00
9738;BME280;4908;47.446;13.900;2023-09-07T01:55:36;93426.38;;;11.16;100.00
9738;BME280;4908;47.446;13.900;2023-09-07T01:58:05;93429.75;;;11.10;100.00
9738;BME280;4908;47.446;13.900;2023-09-07T02:00:36;93423.22;;;11.07;100.00
9738;BME280;4908;47.446;13.900;2023-09-07T02:03:04;93429.72;;;11.06;100.00
9738;BME280;4908;47.446;13.900;2023-09-07T02:05:31;93436.53;;;11.00;100.00
9738;BME280;4908;47.446;13.900;2023-09-07T02:07:58;93433.78;;;10.93;100.00
9738;BME280;4908;47.446;13.900;2023-09-07T02:10:26;93426.81;;;10.85;100.00
9738;BME280;4908;47.446;13.900;2023-09-07T02:12:53;93432.16;;;10.85;100.00
9738;BME280;4908;47.446;13.900;2023-09-07T02:15:23;93430.53;;;10.77;100.00
9738;BME280;4908;47.446;13.900;2023-09-07T02:17:51;93439.69;;;10.72;100.00
9738;BME280;4908;47.446;13.900;2023-09-07T02:20:18;93431.59;;;10.69;100.00
9738;BME280;4908;47.446;13.900;2023-09-07T02:22:45;93441.66;;;10.79;100.00
9738;BME280;4908;47.446;13.900;2023-09-07T02:25:13;93434.03;;;10.81;100.00
9738;BME280;4908;47.446;13.900;2023-09-07T02:27:40;93435.81;;;10.70;100.00
9738;BME280;4908;47.446;13.900;2023-09-07T02:30:08;93431.06;;;10.56;100.00
9738;BME280;4908;47.446;13.900;2023-09-07T02:32:36;93436.38;;;10.53;100.00
9738;BME280;4908;47.446;13.900;2023-09-07T02:35:04;93433.16;;;10.40;100.00
9738;BME280;4908;47.446;13.900;2023-09-07T02:37:32;93431.56;;;10.36;100.00
9738;BME280;4908;47.446;13.900;2023-09-07T02:39:59;93437.50;;;10.52;100.00
9738;BME280;4908;47.446;13.900;2023-09-07T02:42:26;93433.38;;;10.58;100.00
9738;BME280;4908;47.446;13.900;2023-09-07T02:44:53;93435.00;;;10.66;100.00
9738;BME280;4908;47.446;13.900;2023-09-07T02:47:20;93433.53;;;10.68;100.00
9738;BME280;4908;47.446;13.900;2023-09-07T02:49:49;93433.72;;;10.53;100.00
9738;BME280;4908;47.446;13.900;2023-09-07T02:52:16;93438.66;;;10.51;100.00
9738;BME280;4908;47.446;13.900;2023-09-07T02:54:43;93438.25;;;10.49;100.00
9738;BME280;4908;47.446;13.900;2023-09-07T02:57:10;93432.06;;;10.45;100.00
9738;BME280;4908;47.446;13.900;2023-09-07T02:59:38;93427.78;;;10.40;100.00
9738;BME280;4908;47.446;13.900;2023-09-07T03:02:05;93432.38;;;10.40;100.00
9738;BME280;4908;47.446;13.900;2023-09-07T03:04:32;93441.56;;;10.39;100.00
9738;BME280;4908;47.446;13.900;2023-09-07T03:07:02;93435.38;;;10.35;100.00
9738;BME280;4908;47.446;13.900;2023-09-07T03:09:29;93438.47;;;10.37;100.00
9738;BME280;4908;47.446;13.900;2023-09-07T03:11:56;93437.38;;;10.12;100.00
9738;BME280;4908;47.446;13.900;2023-09-07T03:14:23;93445.06;;;10.17;100.00
9738;BME280;4908;47.446;13.900;2023-09-07T03:16:51;93438.56;;;10.14;100.00
9738;BME280;4908;47.446;13.900;2023-09-07T03:19:20;93442.50;;;10.24;100.00
9738;BME280;4908;47.446;13.900;2023-09-07T03:21:47;93439.38;;;9.95;100.00
9738;BME280;4908;47.446;13.900;2023-09-07T03:24:15;93442.22;;;10.06;100.00
9738;BME280;4908;47.446;13.900;2023-09-07T03:26:42;93440.03;;;9.89;100.00
9738;BME280;4908;47.446;13.900;2023-09-07T03:29:10;93449.53;;;9.83;100.00
9738;BME280;4908;47.446;13.900;2023-09-07T03:31:37;93448.22;;;9.73;100.00
9738;BME280;4908;47.446;13.900;2023-09-07T03:34:04;93452.75;;;9.69;100.00
9738;BME280;4908;47.446;13.900;2023-09-07T03:36:32;93447.47;;;9.73;100.00
9738;BME280;4908;47.446;13.900;2023-09-07T03:38:59;93442.53;;;9.75;100.00
9738;BME280;4908;47.446;13.900;2023-09-07T03:41:28;93449.66;;;9.67;100.00
9738;BME280;4908;47.446;13.900;2023-09-07T03:43:56;93438.56;;;9.65;100.00
9738;BME280;4908;47.446;13.900;2023-09-07T03:46:24;93444.19;;;9.60;100.00
9738;BME280;4908;47.446;13.900;2023-09-07T03:48:51;93448.09;;;9.66;100.00
9738;BME280;4908;47.446;13.900;2023-09-07T03:51:19;93452.63;;;9.62;100.00
9738;BME280;4908;47.446;13.900;2023-09-07T03:53:46;93446.59;;;9.65;100.00
9738;BME280;4908;47.446;13.900;2023-09-07T03:56:13;93456.91;;;9.44;100.00
9738;BME280;4908;47.446;13.900;2023-09-07T03:58:41;93450.44;;;9.45;100.00
9738;BME280;4908;47.446;13.900;2023-09-07T04:01:08;93457.75;;;9.48;100.00
9738;BME280;4908;47.446;13.900;2023-09-07T04:03:36;93453.94;;;9.49;100.00
9738;BME280;4908;47.446;13.900;2023-09-07T04:06:03;93442.28;;;9.61;100.00
9738;BME280;4908;47.446;13.900;2023-09-07T04:08:30;93442.47;;;9.49;100.00
9738;BME280;4908;47.446;13.900;2023-09-07T04:10:58;93450.75;;;9.40;100.00
9738;BME280;4908;47.446;13.900;2023-09-07T04:13:25;93446.53;;;9.39;100.00
9738;BME280;4908;47.446;13.900;2023-09-07T04:15:53;93441.47;;;9.34;100.00
9738;BME280;4908;47.446;13.900;2023-09-07T04:18:21;93439.91;;;9.33;100.00
9738;BME280;4908;47.446;13.900;2023-09-07T04:20:48;93450.19;;;9.31;100.00
9738;BME280;4908;47.446;13.900;2023-09-07T04:23:15;93441.47;;;9.34;100.00
9738;BME280;4908;47.446;13.900;2023-09-07T04:25:42;93445.78;;;9.20;100.00
9738;BME280;4908;47.446;13.900;2023-09-07T04:28:10;93449.66;;;9.22;100.00
9738;BME280;4908;47.446;13.900;2023-09-07T04:30:37;93448.94;;;9.25;100.00
9738;BME280;4908;47.446;13.900;2023-09-07T04:33:06;93445.78;;;9.20;100.00
9738;BME280;4908;47.446;13.900;2023-09-07T04:35:33;93444.31;;;9.22;100.00
9738;BME280;4908;47.446;13.900;2023-09-07T04:38:00;93445.78;;;9.20;100.00
9738;BME280;4908;47.446;13.900;2023-09-07T04:40:28;93444.31;;;9.22;100.00
9738;BME280;4908;47.446;13.900;2023-09-07T04:42:55;93455.69;;;9.19;100.00
9738;BME280;4908;47.446;13.900;2023-09-07T04:45:22;93449.25;;;9.20;100.00
9738;BME280;4908;47.446;13.900;2023-09-07T04:47:49;93454.28;;;9.25;100.00
9738;BME280;4908;47.446;13.900;2023-09-07T04:50:18;93453.22;;;9.30;100.00
9738;BME280;4908;47.446;13.900;2023-09-07T04:52:46;93455.78;;;9.23;100.00
9738;BME280;4908;47.446;13.900;2023-09-07T04:55:13;93454.28;;;9.25;100.00
9738;BME280;4908;47.446;13.900;2023-09-07T04:57:40;93460.84;;;8.86;100.00
9738;BME280;4908;47.446;13.900;2023-09-07T05:00:08;93460.16;;;8.51;100.00
9738;BME280;4908;47.446;13.900;2023-09-07T05:02:35;93456.75;;;8.54;100.00
9738;BME280;4908;47.446;13.900;2023-09-07T05:05:08;93457.59;;;8.77;100.00
9738;BME280;4908;47.446;13.900;2023-09-07T05:07:36;93453.22;;;8.88;100.00
9738;BME280;4908;47.446;13.900;2023-09-07T05:10:04;93460.66;;;8.98;100.00
9738;BME280;4908;47.446;13.900;2023-09-07T05:12:32;93460.50;;;9.10;100.00
9738;BME280;4908;47.446;13.900;2023-09-07T05:14:59;93453.44;;;9.21;100.00
9738;BME280;4908;47.446;13.900;2023-09-07T05:17:26;93455.13;;;9.29;100.00
9738;BME280;4908;47.446;13.900;2023-09-07T05:19:54;93460.59;;;9.36;100.00
9738;BME280;4908;47.446;13.900;2023-09-07T05:22:21;93462.66;;;9.46;100.00
9738;BME280;4908;47.446;13.900;2023-09-07T05:24:49;93465.84;;;9.52;100.00
9738;BME280;4908;47.446;13.900;2023-09-07T05:27:17;93452.94;;;9.57;100.00
9738;BME280;4908;47.446;13.900;2023-09-07T05:29:44;93456.53;;;9.68;100.00
9738;BME280;4908;47.446;13.900;2023-09-07T05:32:11;93459.63;;;9.70;100.00
9738;BME280;4908;47.446;13.900;2023-09-07T05:34:38;93455.22;;;9.81;100.00
9738;BME280;4908;47.446;13.900;2023-09-07T05:37:05;93466.03;;;9.88;100.00
9738;BME280;4908;47.446;13.900;2023-09-07T05:39:33;93463.88;;;9.98;100.00
9738;BME280;4908;47.446;13.900;2023-09-07T05:42:01;93460.41;;;10.20;100.00
9738;BME280;4908;47.446;13.900;2023-09-07T05:44:29;93462.47;;;10.30;100.00
9738;BME280;4908;47.446;13.900;2023-09-07T05:46:56;93462.06;;;10.28;100.00
9738;BME280;4908;47.446;13.900;2023-09-07T05:49:24;93465.69;;;10.42;100.00
9738;BME280;4908;47.446;13.900;2023-09-07T05:51:51;93470.72;;;10.47;100.00
9738;BME280;4908;47.446;13.900;2023-09-07T05:54:18;93465.50;;;10.58;100.00
9738;BME280;4908;47.446;13.900;2023-09-07T05:56:45;93469.41;;;10.64;100.00
9738;BME280;4908;47.446;13.900;2023-09-07T05:59:14;93461.56;;;10.78;100.00
9738;BME280;4908;47.446;13.900;2023-09-07T06:01:41;93467.47;;;10.94;100.00
9738;BME280;4908;47.446;13.900;2023-09-07T06:04:08;93464.47;;;10.99;100.00
9738;BME280;4908;47.446;13.900;2023-09-07T06:06:35;93466.53;;;11.09;100.00
9738;BME280;4908;47.446;13.900;2023-09-07T06:09:03;93460.69;;;11.04;100.00
9738;BME280;4908;47.446;13.900;2023-09-07T06:11:30;93463.56;;;11.21;100.00
9738;BME280;4908;47.446;13.900;2023-09-07T06:13:57;93466.34;;;11.32;100.00
9738;BME280;4908;47.446;13.900;2023-09-07T06:16:26;93467.19;;;11.39;100.00
9738;BME280;4908;47.446;13.900;2023-09-07T06:18:53;93468.47;;;11.52;100.00
9738;BME280;4908;47.446;13.900;2023-09-07T06:21:21;93467.38;;;11.57;100.00
9738;BME280;4908;47.446;13.900;2023-09-07T06:23:48;93463.00;;;11.79;100.00
9738;BME280;4908;47.446;13.900;2023-09-07T06:26:15;93464.47;;;11.73;100.00
9738;BME280;4908;47.446;13.900;2023-09-07T06:28:43;93470.59;;;11.69;100.00
9738;BME280;4908;47.446;13.900;2023-09-07T06:31:10;93469.19;;;11.86;100.00
9738;BME280;4908;47.446;13.900;2023-09-07T06:33:39;93471.22;;;12.03;100.00
9738;BME280;4908;47.446;13.900;2023-09-07T06:36:06;93472.44;;;12.13;100.00
9738;BME280;4908;47.446;13.900;2023-09-07T06:38:33;93474.84;;;12.25;100.00
9738;BME280;4908;47.446;13.900;2023-09-07T06:41:01;93470.22;;;12.22;100.00
9738;BME280;4908;47.446;13.900;2023-09-07T06:43:28;93472.94;;;12.25;100.00
9738;BME280;4908;47.446;13.900;2023-09-07T06:46:02;93473.34;;;12.31;100.00
9738;BME280;4908;47.446;13.900;2023-09-07T06:48:30;93473.84;;;12.47;100.00
9738;BME280;4908;47.446;13.900;2023-09-07T06:51:02;93475.81;;;12.57;100.00
9738;BME280;4908;47.446;13.900;2023-09-07T06:53:30;93484.28;;;12.66;100.00
9738;BME280;4908;47.446;13.900;2023-09-07T06:55:58;93478.97;;;12.77;100.00
9738;BME280;4908;47.446;13.900;2023-09-07T06:58:25;93477.41;;;12.72;100.00
9738;BME280;4908;47.446;13.900;2023-09-07T07:00:52;93482.88;;;12.86;100.00
9738;BME280;4908;47.446;13.900;2023-09-07T07:03:19;93472.09;;;12.83;100.00
9738;BME280;4908;47.446;13.900;2023-09-07T07:05:46;93475.06;;;12.67;100.00
9738;BME280;4908;47.446;13.900;2023-09-07T07:08:15;93472.84;;;12.83;100.00
9738;BME280;4908;47.446;13.900;2023-09-07T07:10:42;93474.44;;;12.91;100.00
9738;BME280;4908;47.446;13.900;2023-09-07T07:13:09;93477.53;;;13.00;100.00
9738;BME280;4908;47.446;13.900;2023-09-07T07:15:37;93469.84;;;13.02;100.00
9738;BME280;4908;47.446;13.900;2023-09-07T07:18:04;93472.94;;;12.97;100.00
9738;BME280;4908;47.446;13.900;2023-09-07T07:20:34;93475.38;;;13.27;100.00
9738;BME280;4908;47.446;13.900;2023-09-07T07:23:01;93467.69;;;13.32;100.00
9738;BME280;4908;47.446;13.900;2023-09-07T07:25:30;93471.59;;;13.67;100.00
9738;BME280;4908;47.446;13.900;2023-09-07T07:27:59;93473.53;;;13.77;100.00
9738;BME280;4908;47.446;13.900;2023-09-07T07:30:27;93478.13;;;13.80;100.00
9738;BME280;4908;47.446;13.900;2023-09-07T07:32:54;93472.38;;;14.09;100.00
9738;BME280;4908;47.446;13.900;2023-09-07T07:35:22;93472.75;;;14.15;100.00
9738;BME280;4908;47.446;13.900;2023-09-07T07:37:49;93463.91;;;14.32;100.00
9738;BME280;4908;47.446;13.900;2023-09-07T07:40:17;93469.28;;;14.46;100.00
9738;BME280;4908;47.446;13.900;2023-09-07T07:42:46;93460.41;;;14.63;100.00
9738;BME280;4908;47.446;13.900;2023-09-07T07:45:14;93461.53;;;14.76;100.00
9738;BME280;4908;47.446;13.900;2023-09-07T07:47:45;93464.59;;;14.82;100.00
9738;BME280;4908;47.446;13.900;2023-09-07T07:50:12;93460.28;;;14.98;100.00
9738;BME280;4908;47.446;13.900;2023-09-07T07:52:39;93460.69;;;14.93;100.00
9738;BME280;4908;47.446;13.900;2023-09-07T07:55:08;93457.59;;;14.98;100.00
9738;BME280;4908;47.446;13.900;2023-09-07T07:57:35;93460.25;;;15.09;100.00
9738;BME280;4908;47.446;13.900;2023-09-07T08:00:05;93455.88;;;15.36;100.00
9738;BME280;4908;47.446;13.900;2023-09-07T08:02:33;93458.97;;;15.35;100.00
9738;BME280;4908;47.446;13.900;2023-09-07T08:05:00;93451.94;;;15.55;100.00
9738;BME280;4908;47.446;13.900;2023-09-07T08:07:27;93448.88;;;15.53;100.00
9738;BME280;4908;47.446;13.900;2023-09-07T08:09:54;93447.72;;;15.54;100.00
9738;BME280;4908;47.446;13.900;2023-09-07T08:12:21;93443.19;;;15.95;100.00
9738;BME280;4908;47.446;13.900;2023-09-07T08:14:49;93442.75;;;16.00;100.00
9738;BME280;4908;47.446;13.900;2023-09-07T08:17:17;93451.50;;;16.18;100.00
9738;BME280;4908;47.446;13.900;2023-09-07T08:19:45;93445.91;;;16.39;100.00
9738;BME280;4908;47.446;13.900;2023-09-07T08:22:14;93446.53;;;16.54;100.00
9738;BME280;4908;47.446;13.900;2023-09-07T08:24:42;93447.13;;;16.72;100.00
9738;BME280;4908;47.446;13.900;2023-09-07T08:27:09;93438.50;;;16.84;100.00
9738;BME280;4908;47.446;13.900;2023-09-07T08:29:43;93446.84;;;16.96;100.00
9738;BME280;4908;47.446;13.900;2023-09-07T08:32:12;93439.91;;;16.95;100.00
9738;BME280;4908;47.446;13.900;2023-09-07T08:34:41;93433.88;;;17.15;100.00
9738;BME280;4908;47.446;13.900;2023-09-07T08:37:08;93436.41;;;17.29;100.00
9738;BME280;4908;47.446;13.900;2023-09-07T08:39:35;93436.13;;;17.20;100.00
9738;BME280;4908;47.446;13.900;2023-09-07T08:42:05;93447.00;;;17.50;100.00
9738;BME280;4908;47.446;13.900;2023-09-07T08:44:35;93440.72;;;17.56;100.00
9738;BME280;4908;47.446;13.900;2023-09-07T08:47:04;93436.34;;;17.66;100.00
9738;BME280;4908;47.446;13.900;2023-09-07T08:49:33;93435.66;;;17.85;100.00
9738;BME280;4908;47.446;13.900;2023-09-07T08:52:02;93439.25;;;18.02;100.00
9738;BME280;4908;47.446;13.900;2023-09-07T08:54:30;93433.03;;;18.05;100.00
9738;BME280;4908;47.446;13.900;2023-09-07T08:56:58;93434.41;;;18.16;100.00
9738;BME280;4908;47.446;13.900;2023-09-07T08:59:26;93427.56;;;18.31;100.00
9738;BME280;4908;47.446;13.900;2023-09-07T09:01:56;93422.34;;;18.40;100.00
9738;BME280;4908;47.446;13.900;2023-09-07T09:04:24;93424.34;;;18.59;100.00
9738;BME280;4908;47.446;13.900;2023-09-07T09:06:51;93419.59;;;18.67;100.00
9738;BME280;4908;47.446;13.900;2023-09-07T09:09:23;93421.09;;;18.68;100.00
9738;BME280;4908;47.446;13.900;2023-09-07T09:11:51;93416.47;;;18.68;100.00
9738;BME280;4908;47.446;13.900;2023-09-07T09:14:18;93421.47;;;18.90;100.00
9738;BME280;4908;47.446;13.900;2023-09-07T09:16:50;93423.78;;;18.91;100.00
9738;BME280;4908;47.446;13.900;2023-09-07T09:19:17;93412.63;;;19.05;100.00
9738;BME280;4908;47.446;13.900;2023-09-07T09:21:45;93414.31;;;19.19;100.00
9738;BME280;4908;47.446;13.900;2023-09-07T09:24:12;93412.09;;;19.14;100.00
9738;BME280;4908;47.446;13.900;2023-09-07T09:26:42;93415.56;;;19.34;100.00
9738;BME280;4908;47.446;13.900;2023-09-07T09:29:09;93413.06;;;19.59;100.00
9738;BME280;4908;47.446;13.900;2023-09-07T09:31:37;93413.75;;;19.63;100.00
9738;BME280;4908;47.446;13.900;2023-09-07T09:34:05;93402.53;;;19.61;100.00
9738;BME280;4908;47.446;13.900;2023-09-07T09:36:35;93405.09;;;19.52;100.00
9738;BME280;4908;47.446;13.900;2023-09-07T09:39:03;93405.94;;;19.65;100.00
9738;BME280;4908;47.446;13.900;2023-09-07T09:41:32;93400.63;;;19.78;100.00
9738;BME280;4908;47.446;13.900;2023-09-07T09:44:03;93400.47;;;20.01;100.00
9738;BME280;4908;47.446;13.900;2023-09-07T09:46:32;93395.31;;;20.22;100.00
9738;BME280;4908;47.446;13.900;2023-09-07T09:48:59;93397.00;;;20.16;100.00
9738;BME280;4908;47.446;13.900;2023-09-07T09:51:30;93395.31;;;20.22;100.00
9738;BME280;4908;47.446;13.900;2023-09-07T09:54:00;93382.88;;;20.21;100.00
9738;BME280;4908;47.446;13.900;2023-09-07T09:56:27;93383.75;;;20.18;100.00
9738;BME280;4908;47.446;13.900;2023-09-07T09:58:54;93380.53;;;20.52;100.00
9738;BME280;4908;47.446;13.900;2023-09-07T10:01:24;93380.06;;;20.70;100.00
9738;BME280;4908;47.446;13.900;2023-09-07T10:03:51;93371.19;;;20.82;100.00
9738;BME280;4908;47.446;13.900;2023-09-07T10:06:23;93359.69;;;20.90;100.00
9738;BME280;4908;47.446;13.900;2023-09-07T10:08:54;93361.50;;;21.09;100.00
9738;BME280;4908;47.446;13.900;2023-09-07T10:11:32;93355.41;;;21.18;100.00
9738;BME280;4908;47.446;13.900;2023-09-07T10:14:01;93354.22;;;21.19;100.00
9738;BME280;4908;47.446;13.900;2023-09-07T10:16:41;93351.75;;;21.37;100.00
9738;BME280;4908;47.446;13.900;2023-09-07T10:19:14;93348.69;;;21.48;100.00
9738;BME280;4908;47.446;13.900;2023-09-07T10:21:42;93345.84;;;21.76;100.00
9738;BME280;4908;47.446;13.900;2023-09-07T10:24:10;93341.94;;;21.90;100.00
9738;BME280;4908;47.446;13.900;2023-09-07T10:26:37;93337.97;;;22.03;100.00
9738;BME280;4908;47.446;13.900;2023-09-07T10:29:04;93340.69;;;22.16;97.60
9738;BME280;4908;47.446;13.900;2023-09-07T10:31:33;93334.91;;;22.14;96.84
9738;BME280;4908;47.446;13.900;2023-09-07T10:34:10;93331.84;;;22.24;97.52
9738;BME280;4908;47.446;13.900;2023-09-07T10:36:37;93322.59;;;22.44;97.31
9738;BME280;4908;47.446;13.900;2023-09-07T10:39:05;93320.34;;;22.64;98.75
9738;BME280;4908;47.446;13.900;2023-09-07T10:41:40;93322.59;;;22.78;93.83
9738;BME280;4908;47.446;13.900;2023-09-07T10:44:08;93329.81;;;22.72;86.04
9738;BME280;4908;47.446;13.900;2023-09-07T10:46:39;93321.44;;;22.88;88.39
9738;BME280;4908;47.446;13.900;2023-09-07T10:49:08;93313.38;;;23.06;88.75
9738;BME280;4908;47.446;13.900;2023-09-07T10:51:41;93308.91;;;23.21;90.26
9738;BME280;4908;47.446;13.900;2023-09-07T10:54:16;93312.97;;;23.38;89.32
9738;BME280;4908;47.446;13.900;2023-09-07T10:56:44;93309.25;;;23.63;85.65
9738;BME280;4908;47.446;13.900;2023-09-07T10:59:13;93307.38;;;23.81;83.71
9738;BME280;4908;47.446;13.900;2023-09-07T11:01:43;93311.66;;;23.91;75.95
9738;BME280;4908;47.446;13.900;2023-09-07T11:04:11;93306.06;;;24.04;70.09
9738;BME280;4908;47.446;13.900;2023-09-07T11:06:40;93304.09;;;24.05;70.15
9738;BME280;4908;47.446;13.900;2023-09-07T11:09:08;93303.53;;;24.19;71.50
9738;BME280;4908;47.446;13.900;2023-09-07T11:11:36;93308.69;;;24.35;65.16
9738;BME280;4908;47.446;13.900;2023-09-07T11:14:04;93297.16;;;24.40;70.14
9738;BME280;4908;47.446;13.900;2023-09-07T11:16:33;93297.63;;;24.47;62.52
9738;BME280;4908;47.446;13.900;2023-09-07T11:19:06;93304.31;;;24.55;66.34
9738;BME280;4908;47.446;13.900;2023-09-07T11:21:34;93306.28;;;24.46;62.72
9738;BME280;4908;47.446;13.900;2023-09-07T11:24:02;93294.13;;;24.56;55.71
9738;BME280;4908;47.446;13.900;2023-09-07T11:26:41;93289.09;;;24.63;55.42
9738;BME280;4908;47.446;13.900;2023-09-07T11:29:08;93295.34;;;24.46;59.17
9738;BME280;4908;47.446;13.900;2023-09-07T11:31:35;93286.50;;;24.69;58.63
9738;BME280;4908;47.446;13.900;2023-09-07T11:34:03;93286.97;;;24.67;49.44
9738;BME280;4908;47.446;13.900;2023-09-07T11:36:31;93288.66;;;24.74;53.47
9738;BME280;4908;47.446;13.900;2023-09-07T11:38:58;93281.94;;;24.84;51.67
9738;BME280;4908;47.446;13.900;2023-09-07T11:41:26;93274.50;;;24.84;46.15
9738;BME280;4908;47.446;13.900;2023-09-07T11:43:53;93278.56;;;24.89;49.66
9738;BME280;4908;47.446;13.900;2023-09-07T11:46:20;93275.84;;;24.89;48.92
9738;BME280;4908;47.446;13.900;2023-09-07T11:48:47;93277.91;;;25.21;51.79
9738;BME280;4908;47.446;13.900;2023-09-07T11:51:14;93271.31;;;25.37;49.29
9738;BME280;4908;47.446;13.900;2023-09-07T11:53:43;93271.94;;;25.41;46.45
9738;BME280;4908;47.446;13.900;2023-09-07T11:56:10;93273.50;;;25.65;48.76
9738;BME280;4908;47.446;13.900;2023-09-07T11:58:37;93261.25;;;25.75;49.52
9738;BME280;4908;47.446;13.900;2023-09-07T12:01:05;93254.66;;;25.58;46.84
9738;BME280;4908;47.446;13.900;2023-09-07T12:03:32;93265.38;;;25.71;47.71
9738;BME280;4908;47.446;13.900;2023-09-07T12:06:00;93263.84;;;26.03;53.67
9738;BME280;4908;47.446;13.900;2023-09-07T12:08:27;93256.59;;;25.91;43.28
9738;BME280;4908;47.446;13.900;2023-09-07T12:10:55;93262.34;;;26.02;45.32
9738;BME280;4908;47.446;13.900;2023-09-07T12:13:23;93255.75;;;26.08;45.33
9738;BME280;4908;47.446;13.900;2023-09-07T12:15:51;93251.31;;;26.34;45.98
9738;BME280;4908;47.446;13.900;2023-09-07T12:18:18;93254.06;;;26.49;42.86
9738;BME280;4908;47.446;13.900;2023-09-07T12:20:45;93245.69;;;26.67;43.66
9738;BME280;4908;47.446;13.900;2023-09-07T12:23:12;93247.19;;;26.68;42.92
9738;BME280;4908;47.446;13.900;2023-09-07T12:25:40;93248.25;;;26.56;41.91
9738;BME280;4908;47.446;13.900;2023-09-07T12:28:08;93247.09;;;26.62;42.53
9738;BME280;4908;47.446;13.900;2023-09-07T12:30:36;93241.00;;;26.82;41.72
9738;BME280;4908;47.446;13.900;2023-09-07T12:33:03;93242.88;;;26.76;41.10
9738;BME280;4908;47.446;13.900;2023-09-07T12:35:30;93226.88;;;27.04;40.48
9738;BME280;4908;47.446;13.900;2023-09-07T12:37:57;93226.19;;;27.09;38.88
9738;BME280;4908;47.446;13.900;2023-09-07T12:40:25;93230.59;;;27.01;39.22
9738;BME280;4908;47.446;13.900;2023-09-07T12:42:52;93223.00;;;27.10;38.68
9738;BME280;4908;47.446;13.900;2023-09-07T12:45:21;93219.19;;;26.93;38.23
9738;BME280;4908;47.446;13.900;2023-09-07T12:47:48;93215.03;;;27.41;39.57
9738;BME280;4908;47.446;13.900;2023-09-07T12:50:15;93212.44;;;27.53;38.94
9738;BME280;4908;47.446;13.900;2023-09-07T12:52:42;93214.69;;;27.89;37.82
9738;BME280;4908;47.446;13.900;2023-09-07T12:55:09;93210.16;;;27.86;37.51
9738;BME280;4908;47.446;13.900;2023-09-07T12:57:36;93203.66;;;27.89;36.98
9738;BME280;4908;47.446;13.900;2023-09-07T13:00:05;93201.88;;;27.86;37.25
9738;BME280;4908;47.446;13.900;2023-09-07T13:02:34;93200.81;;;28.38;35.26
9738;BME280;4908;47.446;13.900;2023-09-07T13:05:02;93206.63;;;28.91;34.53
9738;BME280;4908;47.446;13.900;2023-09-07T13:07:30;93211.88;;;28.89;34.18
9738;BME280;4908;47.446;13.900;2023-09-07T13:09:58;93205.69;;;28.94;33.29